Time;durP1;ratioP1;P1;durP2;ratioP2;P2;SDS_P1;SDS_P2;PMS_P1;PMS_P2;Temp;Humidity;BMP_temperature;BMP_pressure;BME280_temperature;BME280_humidity;BME280_pressure;Samples;Min_cycle;Max_cycle;Signal;HPM_P1;HPM_P2
2022/03/22 00:00:29;;;;;;;43.13;29.33;;;9.70;99.90;;;;;;4972476;28;20160;-66
2022/03/22 00:02:55;;;;;;;47.33;30.50;;;9.70;99.90;;;;;;4972674;28;20062;-66
2022/03/22 00:05:21;;;;;;;36.97;29.37;;;9.80;99.90;;;;;;4972281;28;20019;-67
2022/03/22 00:07:47;;;;;;;42.07;30.73;;;;;;;;;;4961394;28;20027;-67
2022/03/22 00:10:14;;;;;;;42.07;30.70;;;9.80;99.90;;;;;;4953164;29;20396;-67
2022/03/22 00:12:39;;;;;;;42.07;29.63;;;9.90;99.90;;;;;;4953428;28;20078;-67
2022/03/22 00:15:06;;;;;;;41.57;29.87;;;9.80;99.90;;;;;;4955046;28;20035;-67
2022/03/22 00:17:31;;;;;;;45.60;33.00;;;9.80;99.90;;;;;;4972594;28;20031;-67
2022/03/22 00:19:57;;;;;;;42.13;31.13;;;9.90;99.90;;;;;;4972530;28;20102;-67
2022/03/22 00:22:24;;;;;;;43.07;31.87;;;9.90;99.90;;;;;;4965414;28;20114;-70
2022/03/22 00:24:49;;;;;;;42.00;28.20;;;9.90;99.90;;;;;;4952948;28;20070;-69
2022/03/22 00:27:15;;;;;;;42.77;31.17;;;9.90;99.90;;;;;;4953316;29;20027;-67
2022/03/22 00:29:40;;;;;;;39.57;29.77;;;10.00;99.90;;;;;;4951680;29;20034;-67
2022/03/22 00:32:08;;;;;;;44.30;29.70;;;9.90;98.10;;;;;;4954579;28;20073;-67
2022/03/22 00:34:34;;;;;;;39.80;28.90;;;10.00;99.90;;;;;;4968578;28;20027;-67
2022/03/22 00:37:00;;;;;;;43.00;30.37;;;;;;;;;;4970618;28;20396;-67
2022/03/22 00:39:26;;;;;;;40.53;29.53;;;;;;;;;;4972342;28;20162;-67
2022/03/22 00:41:53;;;;;;;49.93;32.40;;;9.80;99.90;;;;;;4968904;28;20487;-67
2022/03/22 00:44:19;;;;;;;38.83;28.67;;;9.80;99.90;;;;;;4954792;28;20035;-67
2022/03/22 00:46:44;;;;;;;41.43;29.63;;;9.80;99.90;;;;;;4953468;28;20028;-67
2022/03/22 00:49:10;;;;;;;40.23;28.40;;;9.80;99.90;;;;;;4952663;29;20023;-67
2022/03/22 00:51:35;;;;;;;37.77;28.50;;;9.70;99.90;;;;;;4952575;29;20110;-67
2022/03/22 00:54:02;;;;;;;42.10;30.80;;;;;;;;;;4952798;29;20023;-67
2022/03/22 00:56:29;;;;;;;39.83;29.63;;;9.70;99.90;;;;;;4952668;28;20041;-67
2022/03/22 01:00:01;;;;;;;35.00;27.37;;;9.60;99.90;;;;;;4952283;28;20020;-66
2022/03/22 01:01:40;;;;;;;48.17;32.33;;;;;;;;;;4952581;29;20122;-67
2022/03/22 01:04:06;;;;;;;46.33;31.40;;;9.70;99.90;;;;;;4952267;28;20034;-67
2022/03/22 01:06:33;;;;;;;46.37;31.53;;;9.70;99.90;;;;;;4951190;29;20050;-67
2022/03/22 01:08:59;;;;;;;45.53;31.67;;;;;;;;;;4952226;29;20035;-66
2022/03/22 01:11:25;;;;;;;42.77;33.03;;;9.60;99.90;;;;;;4952489;28;20047;-67
2022/03/22 01:13:51;;;;;;;43.23;32.47;;;;;;;;;;4952155;29;20085;-67
2022/03/22 01:16:16;;;;;;;41.50;32.33;;;9.60;99.90;;;;;;4952267;29;20180;-67
2022/03/22 01:18:42;;;;;;;48.10;34.07;;;9.70;99.90;;;;;;4967308;28;20129;-66
2022/03/22 01:21:08;;;;;;;46.87;32.30;;;9.60;99.90;;;;;;4971096;28;20537;-67
2022/03/22 01:23:34;;;;;;;42.93;33.27;;;9.70;99.90;;;;;;4971558;28;20049;-66
2022/03/22 01:25:59;;;;;;;41.63;32.33;;;9.50;99.90;;;;;;4971035;28;20026;-67
2022/03/22 01:28:26;;;;;;;43.67;31.50;;;9.80;99.90;;;;;;4971008;28;20392;-67
2022/03/22 01:30:52;;;;;;;36.30;28.17;;;9.50;99.90;;;;;;4968710;28;20034;-67
2022/03/22 01:33:18;;;;;;;43.17;30.27;;;9.50;99.90;;;;;;4970095;28;20030;-67
2022/03/22 01:35:44;;;;;;;43.37;30.83;;;9.20;99.90;;;;;;4970532;28;20022;-67
2022/03/22 01:38:10;;;;;;;45.03;30.50;;;;;;;;;;4971416;28;20034;-67
2022/03/22 01:40:37;;;;;;;41.47;30.73;;;9.50;99.90;;;;;;4954156;28;20045;-67
2022/03/22 01:43:03;;;;;;;38.97;29.07;;;9.50;99.90;;;;;;4970842;28;20059;-67
2022/03/22 01:45:28;;;;;;;39.03;28.97;;;9.40;99.90;;;;;;4969244;28;20395;-67
2022/03/22 01:47:58;;;;;;;35.10;26.70;;;9.40;99.90;;;;;;4951708;29;20108;-67
2022/03/22 01:50:24;;;;;;;38.33;27.97;;;;;;;;;;4951880;28;20031;-67
2022/03/22 01:52:50;;;;;;;39.60;29.23;;;9.50;99.90;;;;;;4951702;29;20099;-67
2022/03/22 01:55:18;;;;;;;39.37;28.53;;;9.40;99.90;;;;;;4964643;28;20030;-67
2022/03/22 01:57:44;;;;;;;39.77;27.93;;;9.40;99.90;;;;;;4969594;28;20042;-67
2022/03/22 02:00:13;;;;;;;39.23;29.00;;;9.40;99.20;;;;;;4970939;28;20115;-67
2022/03/22 02:08:10;;;;;;;37.03;27.83;;;9.40;99.10;;;;;;4953295;28;20612;-67
2022/03/22 02:10:37;;;;;;;40.53;28.83;;;9.40;99.90;;;;;;4951459;28;20055;-67
2022/03/22 02:13:02;;;;;;;38.37;28.30;;;9.40;99.90;;;;;;4951306;28;20027;-67
2022/03/22 02:15:28;;;;;;;40.10;28.00;;;9.30;99.90;;;;;;4951851;29;20027;-67
2022/03/22 02:17:54;;;;;;;42.10;28.60;;;9.40;98.90;;;;;;4951773;29;20047;-67
2022/03/22 02:20:20;;;;;;;38.17;27.53;;;9.40;99.90;;;;;;4951687;28;20118;-67
2022/03/22 02:23:05;;;;;;;39.03;26.37;;;9.30;99.90;;;;;;4951951;29;20110;-67
2022/03/22 02:25:31;;;;;;;38.63;26.13;;;9.20;99.90;;;;;;4951300;28;20202;-67
2022/03/22 02:27:57;;;;;;;38.30;26.17;;;9.10;99.90;;;;;;4951545;28;20050;-67
2022/03/22 02:30:23;;;;;;;31.63;24.43;;;9.00;99.90;;;;;;4956427;28;20027;-67
2022/03/22 02:32:53;;;;;;;41.80;28.33;;;9.00;98.70;;;;;;4970613;28;20042;-67
2022/03/22 02:35:20;;;;;;;37.50;27.27;;;8.90;99.40;;;;;;4951499;28;20503;-67
2022/03/22 02:37:46;;;;;;;46.17;28.50;;;9.00;99.90;;;;;;4952459;28;20047;-67
2022/03/22 02:40:13;;;;;;;33.87;25.07;;;8.70;99.90;;;;;;4954703;28;20562;-67
2022/03/22 02:42:50;;;;;;;33.93;24.63;;;8.30;99.90;;;;;;4955142;28;20078;-67
2022/03/22 02:45:17;;;;;;;36.63;26.70;;;8.80;99.90;;;;;;4955134;28;20016;-67
2022/03/22 02:47:43;;;;;;;37.40;27.83;;;8.80;99.90;;;;;;4955254;28;20042;-67
2022/03/22 02:50:09;;;;;;;39.00;26.97;;;8.50;99.60;;;;;;4963406;28;20026;-67
2022/03/22 02:52:36;;;;;;;38.30;27.43;;;8.80;99.50;;;;;;4972873;28;20149;-67
2022/03/22 02:55:04;;;;;;;34.57;27.03;;;8.60;99.90;;;;;;4972942;28;20018;-67
2022/03/22 02:57:29;;;;;;;33.13;25.20;;;;;;;;;;4973926;28;20034;-67
2022/03/22 02:59:55;;;;;;;38.47;25.03;;;8.40;99.90;;;;;;4974056;28;20384;-67
2022/03/22 03:02:21;;;;;;;31.07;23.63;;;8.70;99.90;;;;;;4973866;28;20117;-67
2022/03/22 03:04:46;;;;;;;35.17;25.17;;;8.20;99.90;;;;;;4968063;28;20019;-67
2022/03/22 03:07:12;;;;;;;34.77;25.10;;;;;;;;;;4954343;28;20050;-67
2022/03/22 03:09:38;;;;;;;31.67;23.33;;;;;;;;;;4958043;28;20053;-67
2022/03/22 03:12:04;;;;;;;37.57;27.47;;;8.20;99.90;;;;;;4973300;28;20117;-67
2022/03/22 03:14:39;;;;;;;37.83;28.53;;;8.20;99.90;;;;;;4973637;28;20065;-67
2022/03/22 03:17:09;;;;;;;37.17;26.60;;;8.20;99.90;;;;;;4973752;28;20038;-67
2022/03/22 03:19:35;;;;;;;38.27;25.20;;;;;;;;;;4969320;28;20244;-69
2022/03/22 03:22:03;;;;;;;33.90;25.60;;;;;;;;;;4954234;29;20032;-67
2022/03/22 03:24:28;;;;;;;31.03;24.00;;;8.30;99.90;;;;;;4952783;28;20031;-67
2022/03/22 03:26:54;;;;;;;38.33;24.47;;;;;;;;;;4954179;28;20539;-67
2022/03/22 03:29:20;;;;;;;34.80;24.73;;;8.20;99.90;;;;;;4953045;29;20476;-67
2022/03/22 03:31:45;;;;;;;32.23;23.93;;;8.10;99.90;;;;;;4953250;29;20038;-67
2022/03/22 03:34:11;;;;;;;37.40;25.77;;;7.90;99.90;;;;;;4953934;29;20070;-67
2022/03/22 03:36:36;;;;;;;33.27;24.23;;;7.60;99.90;;;;;;4958671;28;20038;-67
2022/03/22 03:39:04;;;;;;;33.13;23.47;;;7.80;99.90;;;;;;4971472;28;20035;-67
2022/03/22 03:47:11;;;;;;;36.33;26.30;;;7.60;99.90;;;;;;4973389;28;20082;-69
2022/03/22 03:49:39;;;;;;;37.10;26.77;;;7.60;99.90;;;;;;4968424;28;20019;-69
2022/03/22 03:52:10;;;;;;;39.17;27.80;;;7.70;99.90;;;;;;4953711;28;20116;-71
2022/03/22 03:54:36;;;;;;;36.50;27.43;;;7.40;99.90;;;;;;4953149;28;20046;-69
2022/03/22 03:57:02;;;;;;;36.10;25.43;;;7.50;99.90;;;;;;4953389;28;20392;-69
2022/03/22 03:59:29;;;;;;;35.93;26.13;;;7.50;99.90;;;;;;4953805;28;20031;-67
2022/03/22 04:01:55;;;;;;;33.67;24.70;;;7.40;99.90;;;;;;4953660;28;20039;-67
2022/03/22 04:04:20;;;;;;;35.90;25.47;;;7.40;99.90;;;;;;4957048;28;20039;-67
2022/03/22 04:06:47;;;;;;;33.27;24.23;;;7.30;99.90;;;;;;4973310;28;20027;-67
2022/03/22 04:09:13;;;;;;;32.60;23.60;;;;;;;;;;4970792;28;20029;-66
2022/03/22 04:11:39;;;;;;;30.80;24.27;;;7.20;99.90;;;;;;4972524;28;20038;-67
2022/03/22 04:14:04;;;;;;;32.50;24.47;;;7.20;99.90;;;;;;4972317;28;20069;-67
2022/03/22 04:16:30;;;;;;;33.07;25.40;;;7.10;99.90;;;;;;4971031;28;20039;-66
2022/03/22 04:18:55;;;;;;;31.10;21.03;;;6.70;99.90;;;;;;4953585;29;20027;-67
2022/03/22 04:21:21;;;;;;;32.87;24.00;;;7.50;99.90;;;;;;4953802;29;20049;-67
2022/03/22 04:23:46;;;;;;;36.97;24.63;;;7.20;99.90;;;;;;4953409;29;20038;-67
2022/03/22 04:26:12;;;;;;;39.33;26.97;;;7.30;99.90;;;;;;4952889;29;20024;-67
2022/03/22 04:34:06;;;;;;;33.75;26.60;;;7.30;99.90;;;;;;4972502;28;20061;-67
2022/03/22 04:36:35;;;;;;;34.87;24.90;;;7.30;99.90;;;;;;4965436;28;20039;-67
2022/03/22 04:39:01;;;;;;;34.77;24.90;;;7.40;99.90;;;;;;4963215;28;20162;-67
2022/03/22 04:41:26;;;;;;;33.40;23.83;;;7.40;99.90;;;;;;4972243;28;20142;-67
2022/03/22 04:43:52;;;;;;;38.37;25.87;;;7.40;99.90;;;;;;4972210;28;20114;-67
2022/03/22 04:46:18;;;;;;;38.73;26.10;;;7.50;99.90;;;;;;4970929;28;20498;-67
2022/03/22 04:48:47;;;;;;;33.37;23.37;;;7.50;99.90;;;;;;4971201;28;20023;-67
2022/03/22 04:59:10;;;;;;;37.07;26.77;;;7.80;99.90;;;;;;4952589;28;20027;-67
2022/03/22 05:01:37;;;;;;;35.10;23.63;;;7.70;99.90;;;;;;4951838;28;20495;-67
2022/03/22 05:04:03;;;;;;;38.03;24.83;;;;;;;;;;4955000;28;20029;-67
2022/03/22 05:06:30;;;;;;;34.90;23.00;;;7.70;99.90;;;;;;4971421;28;20129;-67
2022/03/22 05:08:56;;;;;;;37.47;24.90;;;;;;;;;;4971751;28;20078;-67
2022/03/22 05:11:22;;;;;;;34.83;25.37;;;7.80;99.90;;;;;;4971465;28;20058;-67
2022/03/22 05:13:48;;;;;;;40.47;27.00;;;;;;;;;;4971834;28;20027;-67
2022/03/22 05:16:17;;;;;;;34.10;24.80;;;7.80;99.90;;;;;;4971616;28;20122;-67
2022/03/22 05:18:43;;;;;;;32.17;23.20;;;7.80;99.90;;;;;;4972010;28;20373;-67
2022/03/22 05:21:08;;;;;;;32.87;22.80;;;7.80;99.90;;;;;;4971062;28;20097;-67
2022/03/22 05:23:34;;;;;;;32.37;23.63;;;7.90;99.90;;;;;;4971542;28;20086;-67
2022/03/22 05:26:00;;;;;;;38.47;26.27;;;;;;;;;;4954067;28;20024;-67
2022/03/22 05:28:26;;;;;;;32.70;25.40;;;7.90;99.90;;;;;;4952068;29;20400;-67
2022/03/22 05:30:52;;;;;;;34.07;24.63;;;8.00;99.90;;;;;;4951997;29;20024;-67
2022/03/22 05:33:17;;;;;;;31.63;24.03;;;7.90;99.90;;;;;;4952027;29;20035;-67
2022/03/22 05:35:43;;;;;;;37.23;25.67;;;8.00;99.90;;;;;;4950349;29;20027;-66
2022/03/22 05:38:08;;;;;;;32.27;23.23;;;7.90;99.90;;;;;;4965330;28;20154;-67
2022/03/22 05:40:34;;;;;;;33.60;25.17;;;8.00;99.90;;;;;;4970823;28;20073;-67
2022/03/22 05:43:00;;;;;;;35.53;25.93;;;8.00;99.90;;;;;;4969902;28;20125;-67
2022/03/22 05:45:29;;;;;;;35.17;25.50;;;;;;;;;;4970998;28;20031;-67
2022/03/22 05:47:54;;;;;;;33.93;24.63;;;8.20;99.90;;;;;;4970917;28;20030;-67
2022/03/22 05:50:21;;;;;;;34.03;25.23;;;;;;;;;;4968045;28;20511;-67
2022/03/22 05:52:47;;;;;;;34.50;24.67;;;8.30;99.90;;;;;;4971439;28;20424;-68
2022/03/22 05:55:13;;;;;;;34.73;26.07;;;8.30;99.90;;;;;;4971042;28;20129;-67
2022/03/22 05:57:39;;;;;;;33.80;25.00;;;;;;;;;;4966017;28;20091;-67
2022/03/22 06:00:08;;;;;;;34.57;25.47;;;8.40;99.30;;;;;;4951637;29;20078;-67
2022/03/22 06:02:38;;;;;;;36.60;24.40;;;8.50;99.30;;;;;;4951551;28;20044;-67
2022/03/22 06:05:05;;;;;;;35.20;23.40;;;8.60;99.90;;;;;;4951471;28;20027;-67
2022/03/22 06:07:31;;;;;;;36.23;24.07;;;8.50;99.90;;;;;;4951675;28;20053;-67
2022/03/22 06:09:57;;;;;;;36.00;23.60;;;8.60;99.90;;;;;;4951568;29;20500;-67
2022/03/22 06:12:22;;;;;;;34.37;24.63;;;8.60;99.90;;;;;;4954321;28;20104;-67
2022/03/22 06:15:14;;;;;;;29.83;21.90;;;;;;;;;;4955846;29;20023;-67
2022/03/22 06:17:34;;;;;;;33.47;24.37;;;;;;;;;;4954833;29;20470;-67
2022/03/22 06:20:00;;;;;;;34.10;25.93;;;8.70;99.90;;;;;;4955362;29;20118;-67
2022/03/22 06:22:25;;;;;;;34.13;24.50;;;9.00;99.90;;;;;;4955399;28;20023;-67
2022/03/22 06:24:51;;;;;;;32.10;23.17;;;;;;;;;;4955253;29;20384;-67
2022/03/22 06:27:19;;;;;;;32.27;25.83;;;;;;;;;;4964639;28;20034;-67
2022/03/22 06:29:44;;;;;;;32.73;24.17;;;9.20;99.90;;;;;;4975190;28;20039;-67
2022/03/22 06:32:11;;;;;;;31.13;22.90;;;9.10;99.90;;;;;;4974228;28;20050;-67
2022/03/22 06:34:37;;;;;;;29.10;21.67;;;9.20;99.90;;;;;;4974741;28;20055;-67
2022/03/22 06:37:03;;;;;;;29.43;21.87;;;9.20;99.90;;;;;;4974389;28;20074;-67
2022/03/22 06:39:29;;;;;;;30.10;24.20;;;9.40;99.90;;;;;;4974020;28;20111;-67
2022/03/22 06:41:55;;;;;;;34.70;24.40;;;9.30;99.90;;;;;;4972747;28;20573;-67
2022/03/22 06:44:20;;;;;;;32.47;25.50;;;9.30;99.90;;;;;;4974244;28;20038;-67
2022/03/22 06:46:45;;;;;;;29.77;22.17;;;9.60;99.90;;;;;;4973980;28;20058;-66
2022/03/22 06:49:12;;;;;;;37.40;23.00;;;;;;;;;;4973079;28;20034;-67
2022/03/22 06:51:38;;;;;;;31.73;23.07;;;;;;;;;;4974084;28;20037;-67
2022/03/22 06:54:03;;;;;;;30.10;22.57;;;9.60;99.90;;;;;;4972365;28;20034;-66
2022/03/22 06:56:29;;;;;;;34.20;24.80;;;9.60;99.90;;;;;;4958992;28;20047;-66
2022/03/22 06:58:55;;;;;;;35.37;23.70;;;9.70;99.90;;;;;;4970738;28;20031;-67
2022/03/22 07:01:21;;;;;;;30.80;20.87;;;9.80;99.90;;;;;;4966237;28;20031;-67
2022/03/22 07:03:47;;;;;;;31.93;21.87;;;;;;;;;;4970027;28;20464;-67
2022/03/22 07:06:12;;;;;;;33.00;24.00;;;9.80;99.90;;;;;;4967087;28;20107;-66
2022/03/22 07:08:38;;;;;;;29.70;21.57;;;10.00;99.90;;;;;;4972987;28;20041;-66
2022/03/22 07:13:49;;;;;;;;;;;10.00;96.40;;;;;;4974111;28;20041;-67
2022/03/22 07:16:15;;;;;;;28.63;21.07;;;10.00;99.90;;;;;;4972921;28;19910;-67
2022/03/22 07:18:41;;;;;;;27.87;22.00;;;;;;;;;;4967831;28;20114;-69
2022/03/22 07:21:06;;;;;;;29.80;21.63;;;10.50;99.90;;;;;;4973083;28;20085;-67
2022/03/22 07:23:32;;;;;;;34.73;22.80;;;;;;;;;;4972878;28;20026;-69
2022/03/22 07:25:58;;;;;;;31.60;22.73;;;10.50;99.90;;;;;;4973506;28;20026;-67
2022/03/22 07:28:26;;;;;;;25.17;18.63;;;10.70;99.90;;;;;;4973851;28;20023;-67
2022/03/22 07:30:51;;;;;;;28.60;21.13;;;10.70;99.90;;;;;;4959927;28;20027;-68
2022/03/22 07:33:17;;;;;;;28.90;22.23;;;10.50;99.90;;;;;;4953176;28;20134;-68
2022/03/22 07:35:43;;;;;;;25.50;20.40;;;10.80;99.90;;;;;;4973165;28;20027;-68
2022/03/22 07:38:08;;;;;;;34.03;23.13;;;;;;;;;;4972258;28;20238;-68
2022/03/22 07:40:34;;;;;;;30.37;22.80;;;11.00;99.90;;;;;;4964280;28;20085;-68
2022/03/22 07:43:00;;;;;;;29.20;20.53;;;10.80;99.90;;;;;;4977933;28;20035;-68
2022/03/22 07:45:25;;;;;;;32.43;21.20;;;10.90;99.90;;;;;;4992346;28;20033;-68
2022/03/22 07:47:51;;;;;;;27.90;21.40;;;;;;;;;;4978903;28;20031;-68
2022/03/22 07:53:01;;;;;;;31.10;20.20;;;;;;;;;;4973063;28;20054;-68
2022/03/22 07:55:33;;;;;;;28.03;19.63;;;11.00;99.90;;;;;;4972989;28;20027;-68
2022/03/22 07:57:59;;;;;;;25.17;19.73;;;;;;;;;;4955158;28;20838;-68
2022/03/22 08:00:26;;;;;;;31.37;20.33;;;11.30;93.40;;;;;;4959595;28;20027;-68
2022/03/22 08:03:03;;;;;;;27.17;21.13;;;11.40;99.90;;;;;;4952018;29;20027;-68
2022/03/22 08:05:30;;;;;;;26.13;19.17;;;11.60;99.90;;;;;;4967397;28;20212;-68
2022/03/22 08:07:55;;;;;;;29.20;20.50;;;11.30;99.90;;;;;;4972342;28;20031;-67
2022/03/22 08:10:22;;;;;;;27.97;20.53;;;11.50;99.80;;;;;;4972113;28;20050;-68
2022/03/22 08:12:48;;;;;;;27.93;20.70;;;11.50;92.60;;;;;;4971866;28;20085;-68
2022/03/22 08:15:14;;;;;;;31.07;21.07;;;11.40;99.60;;;;;;4969923;28;20037;-68
2022/03/22 08:17:40;;;;;;;26.83;19.77;;;11.60;99.50;;;;;;4971491;28;20042;-68
2022/03/22 08:20:07;;;;;;;25.53;20.77;;;11.70;99.50;;;;;;4972200;28;20022;-68
2022/03/22 08:22:50;;;;;;;30.10;21.30;;;11.60;99.30;;;;;;4972674;28;20030;-68
2022/03/22 08:25:28;;;;;;;27.00;19.98;;;11.90;99.20;;;;;;4972576;28;20051;-68
2022/03/22 08:27:55;;;;;;;28.13;19.33;;;11.80;99.20;;;;;;4972092;28;20054;-68
2022/03/22 08:30:21;;;;;;;23.87;18.43;;;11.80;98.90;;;;;;4970985;28;20141;-68
2022/03/22 08:32:49;;;;;;;20.63;18.20;;;11.90;99.10;;;;;;4971528;28;20029;-68
2022/03/22 08:35:15;;;;;;;27.50;18.33;;;;;;;;;;4971555;28;20038;-68
2022/03/22 08:37:41;;;;;;;27.50;18.77;;;11.90;99.00;;;;;;4972454;28;20073;-69
2022/03/22 08:40:07;;;;;;;24.10;18.45;;;;;;;;;;4962544;28;20113;-68
2022/03/22 08:42:33;;;;;;;22.02;18.08;;;;;;;;;;4961266;28;20062;-69
2022/03/22 08:44:59;;;;;;;28.23;19.70;;;11.80;98.70;;;;;;4970562;28;20763;-68
2022/03/22 08:47:26;;;;;;;22.25;17.88;;;12.00;98.70;;;;;;4971902;28;20230;-69
2022/03/22 08:49:52;;;;;;;25.20;20.17;;;12.30;97.90;;;;;;4971611;28;20075;-68
2022/03/22 08:52:17;;;;;;;30.98;20.48;;;12.80;95.40;;;;;;4961589;28;20393;-66
2022/03/22 08:54:43;;;;;;;24.50;18.77;;;12.40;98.10;;;;;;4971723;28;20070;-66
2022/03/22 08:57:08;;;;;;;27.02;18.15;;;12.60;98.00;;;;;;4970953;28;20146;-66
2022/03/22 08:59:35;;;;;;;29.92;20.45;;;12.60;97.80;;;;;;4971125;28;20027;-66
2022/03/22 09:02:01;;;;;;;27.23;20.15;;;12.80;97.70;;;;;;4965459;28;20033;-66
2022/03/22 09:07:14;;;;;;;22.70;18.45;;;12.70;97.50;;;;;;4971259;28;20395;-66
2022/03/22 09:09:39;;;;;;;26.33;20.57;;;12.80;97.50;;;;;;4970560;28;20062;-66
2022/03/22 09:12:05;;;;;;;25.90;18.52;;;12.70;97.40;;;;;;4969243;28;20035;-67
2022/03/22 09:14:31;;;;;;;24.20;17.90;;;12.70;97.40;;;;;;4970327;28;20114;-68
2022/03/22 09:16:56;;;;;;;22.35;16.45;;;12.80;97.20;;;;;;4962834;28;20039;-68
2022/03/22 09:19:22;;;;;;;24.55;19.30;;;12.90;97.10;;;;;;4971823;28;20408;-68
2022/03/22 09:21:48;;;;;;;27.13;19.40;;;;;;;;;;4971617;28;20023;-68
2022/03/22 09:24:14;;;;;;;26.80;19.45;;;13.40;96.80;;;;;;4971589;28;20448;-67
2022/03/22 09:26:39;;;;;;;27.27;18.35;;;13.40;96.80;;;;;;4971098;28;20066;-68
2022/03/22 09:29:05;;;;;;;27.02;19.52;;;13.30;96.70;;;;;;4971646;28;20030;-67
2022/03/22 09:31:30;;;;;;;20.45;16.20;;;13.70;96.70;;;;;;4967604;28;20046;-67
2022/03/22 09:33:57;;;;;;;26.25;18.25;;;13.70;96.50;;;;;;4969876;28;20373;-67
2022/03/22 09:36:23;;;;;;;25.92;18.80;;;13.80;96.30;;;;;;4970715;28;20034;-67
2022/03/22 09:38:48;;;;;;;22.48;18.20;;;13.80;96.60;;;;;;4971436;28;20031;-67
2022/03/22 09:41:15;;;;;;;24.88;18.05;;;14.20;96.30;;;;;;4970597;28;20041;-67
2022/03/22 09:43:46;;;;;;;22.83;18.48;;;14.20;96.20;;;;;;4970374;28;20388;-67
2022/03/22 09:46:17;;;;;;;24.25;16.65;;;13.80;96.30;;;;;;4952262;28;20035;-67
2022/03/22 09:48:42;;;;;;;23.80;19.38;;;14.10;89.20;;;;;;4964285;28;20114;-68
2022/03/22 09:52:08;;;;;;;23.05;17.52;;;14.10;95.50;;;;;;4964245;28;20166;-67
2022/03/22 09:54:03;;;;;;;24.73;17.23;;;14.40;95.60;;;;;;4965890;28;20038;-67
2022/03/22 09:56:31;;;;;;;23.15;18.70;;;14.90;87.90;;;;;;4970432;28;20039;-68
2022/03/22 09:58:59;;;;;;;22.40;16.58;;;14.40;95.70;;;;;;4970819;28;20058;-67
2022/03/22 10:01:24;;;;;;;26.50;20.20;;;14.90;95.60;;;;;;4968733;28;20504;-66
2022/03/22 10:04:01;;;;;;;26.15;18.20;;;14.70;95.70;;;;;;4970620;28;20107;-66
2022/03/22 10:06:28;;;;;;;22.80;18.02;;;14.70;86.00;;;;;;4970902;28;20093;-66
2022/03/22 10:08:54;;;;;;;25.65;18.05;;;14.80;95.40;;;;;;4961430;28;20034;-66
2022/03/22 10:11:20;;;;;;;25.95;20.95;;;14.80;94.70;;;;;;4967585;28;20042;-67
2022/03/22 10:13:56;;;;;;;24.20;18.80;;;14.90;95.30;;;;;;4968090;28;20033;-67
2022/03/22 10:16:22;;;;;;;24.30;18.15;;;15.00;86.70;;;;;;4969559;28;20031;-67
2022/03/22 10:18:48;;;;;;;26.67;19.05;;;15.00;85.60;;;;;;4961397;28;20026;-67
2022/03/22 10:21:13;;;;;;;23.75;19.42;;;15.00;95.20;;;;;;4970559;28;20027;-66
2022/03/22 10:23:50;;;;;;;23.95;18.42;;;15.10;85.50;;;;;;4970737;28;20034;-67
2022/03/22 10:26:16;;;;;;;25.00;19.35;;;15.10;86.30;;;;;;4970287;28;20508;-67
2022/03/22 10:28:53;;;;;;;23.88;16.42;;;15.20;85.40;;;;;;4966843;28;20031;-67
2022/03/22 10:31:20;;;;;;;26.17;19.65;;;15.50;94.90;;;;;;4969152;28;20027;-67
2022/03/22 10:33:50;;;;;;;26.38;19.35;;;15.40;84.70;;;;;;4971323;28;20035;-68
2022/03/22 10:36:18;;;;;;;22.60;17.08;;;15.30;94.60;;;;;;4990212;28;20015;-67
2022/03/22 10:38:59;;;;;;;26.42;19.55;;;15.50;94.30;;;;;;4974757;28;20114;-68
2022/03/22 10:41:27;;;;;;;21.92;17.80;;;15.50;85.00;;;;;;4968141;28;20499;-67
2022/03/22 10:44:10;;;;;;;25.08;18.52;;;15.70;94.30;;;;;;4970242;28;20514;-68
2022/03/22 10:46:37;;;;;;;24.20;17.63;;;15.60;85.00;;;;;;4962788;28;20204;-67
2022/03/22 10:49:09;;;;;;;24.98;16.75;;;15.60;84.10;;;;;;4963955;28;20499;-67
2022/03/22 10:51:42;;;;;;;26.40;18.38;;;15.70;94.10;;;;;;4962283;28;20043;-67
2022/03/22 10:54:09;;;;;;;22.63;18.50;;;15.90;93.80;;;;;;4969206;28;20039;-67
2022/03/22 10:56:35;;;;;;;23.83;18.23;;;15.90;93.70;;;;;;4970172;28;20066;-67
2022/03/22 10:59:01;;;;;;;21.02;16.35;;;15.90;83.10;;;;;;4971998;28;20035;-67
2022/03/22 11:01:27;;;;;;;23.15;18.00;;;15.90;83.30;;;;;;4973745;28;20038;-67
2022/03/22 11:03:56;;;;;;;23.08;17.80;;;16.00;83.10;;;;;;4971138;28;20039;-67
2022/03/22 11:06:28;;;;;;;23.40;17.50;;;16.00;83.50;;;;;;4985608;28;20113;-67
2022/03/22 11:08:54;;;;;;;20.38;16.55;;;16.00;83.20;;;;;;4966710;28;20445;-67
2022/03/22 11:11:20;;;;;;;22.45;17.55;;;16.10;82.40;;;;;;4972534;28;20061;-67
2022/03/22 11:13:46;;;;;;;23.13;17.15;;;16.10;81.90;;;;;;4974632;28;20380;-67
2022/03/22 11:16:12;;;;;;;22.90;15.63;;;16.10;81.50;;;;;;4973100;28;20109;-67
2022/03/22 11:18:39;;;;;;;26.25;18.67;;;16.10;81.80;;;;;;4973402;28;20031;-68
2022/03/22 11:21:05;;;;;;;23.50;17.70;;;16.20;79.80;;;;;;4973382;28;20031;-67
2022/03/22 11:23:33;;;;;;;25.13;17.40;;;16.30;92.10;;;;;;4972325;28;20198;-68
2022/03/22 11:26:12;;;;;;;32.47;19.52;;;16.40;79.20;;;;;;4973739;28;20031;-68
2022/03/22 11:28:40;;;;;;;28.02;17.33;;;16.80;79.00;;;;;;4985480;28;20034;-69
2022/03/22 11:31:09;;;;;;;27.88;18.00;;;16.40;78.20;;;;;;4975215;28;20109;-69
2022/03/22 11:36:25;;;;;;;24.17;17.60;;;16.50;78.00;;;;;;4971128;28;20082;-68
2022/03/22 11:38:56;;;;;;;25.42;16.90;;;16.60;78.10;;;;;;4986519;28;20030;-67
2022/03/22 11:44:32;;;;;;;20.83;15.68;;;16.60;76.60;;;;;;4973688;28;20045;-69
2022/03/22 11:47:05;;;;;;;24.40;15.32;;;16.70;78.70;;;;;;4973322;28;20034;-68
2022/03/22 11:49:47;;;;;;;22.10;15.40;;;16.70;79.30;;;;;;4973237;28;20025;-69
2022/03/22 11:52:13;;;;;;;26.38;17.13;;;16.70;79.20;;;;;;4973089;28;20496;-68
2022/03/22 11:54:40;;;;;;;21.52;15.57;;;16.70;79.30;;;;;;4963056;28;20031;-67
2022/03/22 11:57:06;;;;;;;20.88;15.70;;;16.60;79.40;;;;;;4968451;28;20109;-66
2022/03/22 11:59:42;;;;;;;30.33;17.65;;;16.50;79.10;;;;;;4965404;28;20045;-67
2022/03/22 12:02:12;;;;;;;24.38;16.73;;;16.70;92.00;;;;;;4972464;28;20030;-66
2022/03/22 12:04:41;;;;;;;24.17;16.65;;;16.40;79.90;;;;;;4972446;28;20848;-66
2022/03/22 12:07:09;;;;;;;23.08;16.95;;;16.50;79.60;;;;;;4970757;28;20031;-68
2022/03/22 12:09:40;;;;;;;22.50;16.92;;;16.50;79.70;;;;;;4971402;28;20047;-67
2022/03/22 12:12:06;;;;;;;23.77;16.55;;;16.50;80.30;;;;;;4972206;28;20468;-68
2022/03/22 12:14:34;;;;;;;26.38;18.83;;;16.50;79.00;;;;;;4972354;28;20042;-67
2022/03/22 12:17:00;;;;;;;23.70;18.00;;;17.70;80.40;;;;;;4970975;28;20108;-67
2022/03/22 12:19:28;;;;;;;25.63;18.58;;;16.50;79.60;;;;;;4972658;28;20109;-67
2022/03/22 12:21:55;;;;;;;24.85;18.60;;;16.50;79.40;;;;;;4971839;28;20109;-67
2022/03/22 12:24:24;;;;;;;26.42;18.13;;;16.60;78.80;;;;;;4971266;28;20519;-68
2022/03/22 12:26:51;;;;;;;25.67;17.65;;;16.70;79.40;;;;;;4970829;28;20034;-68
2022/03/22 12:29:18;;;;;;;25.08;17.83;;;16.50;78.60;;;;;;4971752;28;20500;-67
2022/03/22 12:31:51;;;;;;;24.00;17.35;;;16.80;91.50;;;;;;4971626;28;20034;-68
2022/03/22 12:34:17;;;;;;;19.92;15.55;;;16.50;78.20;;;;;;4971556;28;20062;-67
2022/03/22 12:36:42;;;;;;;24.75;17.17;;;16.70;77.20;;;;;;4970411;28;20038;-67
2022/03/22 12:39:09;;;;;;;23.25;15.30;;;16.80;77.10;;;;;;4972074;28;20033;-68
2022/03/22 12:41:34;;;;;;;19.27;14.55;;;16.80;76.70;;;;;;4970850;28;20045;-67
2022/03/22 12:44:00;;;;;;;21.83;16.27;;;16.90;76.70;;;;;;4970893;28;20031;-67
2022/03/22 12:46:28;;;;;;;21.33;15.93;;;17.00;76.30;;;;;;4971672;28;20019;-67
2022/03/22 12:48:55;;;;;;;22.10;16.92;;;17.00;75.60;;;;;;4971986;28;20027;-67
2022/03/22 12:51:25;;;;;;;23.52;16.45;;;17.10;74.30;;;;;;4970780;28;20081;-67
2022/03/22 12:53:51;;;;;;;23.08;16.00;;;17.10;73.20;;;;;;4971703;28;20038;-67
2022/03/22 12:56:19;;;;;;;23.25;16.35;;;17.20;73.90;;;;;;4969628;28;20038;-66
2022/03/22 12:58:44;;;;;;;25.95;17.48;;;17.20;74.30;;;;;;4965957;28;20046;-66
2022/03/22 13:01:10;;;;;;;24.15;16.60;;;17.30;73.40;;;;;;4971758;28;20170;-66
2022/03/22 13:03:38;;;;;;;26.27;17.60;;;17.30;73.50;;;;;;4971346;28;20037;-67
2022/03/22 13:06:06;;;;;;;26.50;16.85;;;17.30;73.30;;;;;;4971748;28;20046;-67
2022/03/22 13:11:27;;;;;;;25.17;15.65;;;17.30;73.30;;;;;;4969066;28;20089;-67
2022/03/22 13:16:38;;;;;;;22.65;15.77;;;17.50;71.50;;;;;;4952266;29;20041;-67
2022/03/22 13:19:06;;;;;;;24.15;15.00;;;17.60;72.30;;;;;;4956290;28;20022;-67
2022/03/22 13:21:37;;;;;;;22.23;14.52;;;17.60;71.80;;;;;;4970532;28;20096;-67
2022/03/22 13:24:17;;;;;;;18.88;12.38;;;17.70;71.80;;;;;;4969871;28;20053;-67
2022/03/22 13:27:02;;;;;;;21.75;13.57;;;17.80;69.70;;;;;;4965592;28;20024;-67